Time;durP1;ratioP1;P1;durP2;ratioP2;P2;SDS_P1;SDS_P2;PMS_P1;PMS_P2;Temp;Humidity;BMP_temperature;BMP_pressure;BME280_temperature;BME280_humidity;BME280_pressure;Samples;Min_cycle;Max_cycle;Signal;HPM_P1;HPM_P2
2021/12/21 00:01:00;;;;;;;;;;;;;;;16.70;65.70;100922.81;5047971;28;1712;-42
2021/12/21 00:03:26;;;;;;;;;;;;;;;16.66;65.44;100924.03;5008615;28;1945;-42
2021/12/21 00:05:53;;;;;;;;;;;;;;;16.74;65.00;100941.28;5008320;28;1623;-42
2021/12/21 00:08:20;;;;;;;;;;;;;;;16.82;65.76;100933.56;5007850;28;1504;-42
2021/12/21 00:10:47;;;;;;;;;;;;;;;16.82;65.66;100936.25;5007806;28;1579;-42
2021/12/21 00:13:37;;;;;;;;;;;;;;;16.80;65.68;100935.47;5007641;28;1934;-41
2021/12/21 00:16:13;;;;;;;;;;;;;;;16.76;65.66;100934.84;5007859;28;1643;-42
2021/12/21 00:18:44;;;;;;;;;;;;;;;16.69;66.07;100931.81;5007261;28;1496;-42
2021/12/21 00:21:19;;;;;;;;;;;;;;;16.68;66.29;100939.94;5008906;28;2373;-42
2021/12/21 00:23:48;;;;;;;;;;;;;;;16.67;66.63;100944.44;5008158;28;1554;-41
2021/12/21 00:26:16;;;;;;;;;;;;;;;16.63;66.10;100942.97;5011423;28;1349;-42
2021/12/21 00:28:52;;;;;;;;;;;;;;;16.64;66.65;100957.16;5008830;28;1660;-42
2021/12/21 00:31:19;;;;;;;;;;;;;;;16.54;66.76;100956.16;5006382;28;1580;-41
2021/12/21 00:33:47;;;;;;;;;;;;;;;16.43;66.60;100965.81;5008521;28;1918;-41
2021/12/21 00:36:14;;;;;;;;;;;;;;;16.36;66.92;100964.56;5007720;28;1632;-41
2021/12/21 00:38:40;;;;;;;;;;;;;;;16.37;66.32;100973.41;5008774;28;1687;-42
2021/12/21 00:41:07;;;;;;;;;;;;;;;16.33;66.71;100969.25;5008792;28;1485;-41
2021/12/21 00:43:34;;;;;;;;;;;;;;;16.33;66.56;100971.94;5007436;28;1588;-42
2021/12/21 00:46:02;;;;;;;;;;;;;;;16.30;66.38;100984.53;5007702;28;1528;-42
2021/12/21 00:48:30;;;;;;;;;;;;;;;16.24;66.68;100978.81;5011294;28;1281;-41
2021/12/21 00:50:57;;;;;;;;;;;;;;;16.21;67.79;100969.19;5007449;28;1908;-41
2021/12/21 00:53:24;;;;;;;;;;;;;;;16.20;66.50;100978.16;5003787;28;1902;-41
2021/12/21 00:55:50;;;;;;;;;;;;;;;16.17;66.74;100982.88;5007775;28;1488;-41
2021/12/21 00:58:17;;;;;;;;;;;;;;;16.14;67.46;100975.94;5008086;28;2047;-41
2021/12/21 01:00:44;;;;;;;;;;;;;;;16.15;67.80;100985.63;5008600;28;1524;-42
2021/12/21 01:03:14;;;;;;;;;;;;;;;16.12;66.52;100983.22;5044295;28;1475;-41
2021/12/21 01:05:46;;;;;;;;;;;;;;;16.09;67.62;100975.41;5048544;28;1586;-42
2021/12/21 01:08:18;;;;;;;;;;;;;;;16.08;67.25;100979.91;5047804;28;1526;-42
2021/12/21 01:11:02;;;;;;;;;;;;;;;16.11;66.80;100989.50;5045570;28;1115;-41
2021/12/21 01:13:41;;;;;;;;;;;;;;;16.07;66.71;100986.19;5047236;28;1967;-41
2021/12/21 01:16:19;;;;;;;;;;;;;;;16.04;67.23;100974.91;5043646;28;1558;-42
2021/12/21 01:19:06;;;;;;;;;;;;;;;16.02;67.56;100975.03;5047136;28;1507;-41
2021/12/21 01:21:37;;;;;;;;;;;;;;;16.04;66.69;100988.25;5046763;28;1626;-41
2021/12/21 01:27:10;;;;;;;;;;;;;;;15.99;66.11;100990.38;5050566;28;1169;-42
2021/12/21 01:29:46;;;;;;;;;;;;;;;15.98;66.65;100978.03;5045003;28;1904;-42
2021/12/21 01:32:20;;;;;;;;;;;;;;;15.95;67.73;100979.09;5043197;28;1481;-42
2021/12/21 01:34:57;;;;;;;;;;;;;;;15.95;66.65;100978.25;5039371;28;1923;-41
2021/12/21 01:37:31;;;;;;;;;;;;;;;15.92;67.22;100976.66;5044482;28;1662;-42
2021/12/21 01:40:10;;;;;;;;;;;;;;;15.91;67.41;100967.78;5042041;28;1477;-41
2021/12/21 01:42:53;;;;;;;;;;;;;;;15.92;67.94;100979.31;5045957;28;1602;-42
2021/12/21 01:50:50;;;;;;;;;;;;;;;15.88;67.36;100972.50;5043807;28;1478;-42
2021/12/21 01:53:17;;;;;;;;;;;;;;;15.88;67.35;100968.00;5044547;28;1957;-42
2021/12/21 01:55:43;;;;;;;;;;;;;;;15.86;67.43;100975.28;5048866;28;1099;-41
2021/12/21 01:58:10;;;;;;;;;;;;;;;15.81;67.65;100972.06;5046614;28;1476;-41
2021/12/21 02:00:36;;;;;;;;;;;;;;;15.82;67.52;100979.13;5050179;28;1134;-41
2021/12/21 02:03:03;;;;;;;;;;;;;;;15.81;67.59;100972.06;5046192;28;1762;-41
2021/12/21 02:05:29;;;;;;;;;;;;;;;15.80;67.76;100978.38;5047075;28;1589;-41
2021/12/21 02:07:57;;;;;;;;;;;;;;;15.77;67.63;100965.25;5043757;28;1553;-41
2021/12/21 02:10:24;;;;;;;;;;;;;;;15.81;67.36;100974.75;5041849;28;2070;-42
2021/12/21 02:12:50;;;;;;;;;;;;;;;15.79;67.72;100990.00;5046294;28;1543;-41
2021/12/21 02:15:17;;;;;;;;;;;;;;;15.77;66.85;100977.75;5047827;28;1906;-42
2021/12/21 02:20:47;;;;;;;;;;;;;;;15.77;67.80;100983.06;5009140;28;1514;-42
2021/12/21 02:23:18;;;;;;;;;;;;;;;15.75;67.51;100971.66;5051062;28;1422;-42
2021/12/21 02:26:09;;;;;;;;;;;;;;;15.77;67.53;100991.91;5052248;28;1130;-41
2021/12/21 02:29:09;;;;;;;;;;;;;;;15.75;66.36;100977.00;5046148;28;1506;-42
2021/12/21 02:31:36;;;;;;;;;;;;;;;15.82;66.37;100970.28;5046636;28;1486;-41
2021/12/21 02:34:02;;;;;;;;;;;;;;;16.13;66.29;100965.38;5053018;28;1909;-42
2021/12/21 02:36:30;;;;;;;;;;;;;;;16.38;65.18;100980.47;5049638;28;1698;-41
2021/12/21 02:38:57;;;;;;;;;;;;;;;16.53;65.15;100965.09;5049403;28;1684;-41
2021/12/21 02:41:25;;;;;;;;;;;;;;;16.85;64.40;100971.59;5050240;28;1590;-41
2021/12/21 02:43:51;;;;;;;;;;;;;;;16.87;64.46;100988.34;5050955;28;1460;-42
2021/12/21 02:46:18;;;;;;;;;;;;;;;17.22;63.71;100965.25;5051497;28;1749;-41
2021/12/21 02:48:44;;;;;;;;;;;;;;;17.33;63.60;100969.75;5053384;28;1198;-42
2021/12/21 02:51:11;;;;;;;;;;;;;;;17.40;63.46;100984.34;5047450;28;1767;-42
2021/12/21 02:53:38;;;;;;;;;;;;;;;17.46;63.42;100971.34;5045091;28;1918;-41
2021/12/21 02:56:06;;;;;;;;;;;;;;;17.55;63.22;100987.63;5050001;28;1487;-42
2021/12/21 02:58:33;;;;;;;;;;;;;;;17.51;63.26;100976.34;5049928;28;1696;-42
2021/12/21 03:03:28;;;;;;;;;;;;;;;17.56;63.08;100973.28;5003671;28;1677;-41
2021/12/21 03:05:57;;;;;;;;;;;;;;;17.18;64.14;100985.16;5010216;28;1542;-41
2021/12/21 03:08:26;;;;;;;;;;;;;;;17.05;64.39;100994.13;5007885;28;1476;-42
2021/12/21 03:11:09;;;;;;;;;;;;;;;17.21;64.40;100991.13;5010280;28;1510;-41
2021/12/21 03:16:35;;;;;;;;;;;;;;;17.20;64.19;100996.56;4987995;28;1601;-41
2021/12/21 03:19:02;;;;;;;;;;;;;;;17.23;64.23;101002.53;4987871;28;1633;-42
2021/12/21 03:21:28;;;;;;;;;;;;;;;17.26;64.13;100990.75;4998080;28;1822;-41
2021/12/21 03:23:56;;;;;;;;;;;;;;;17.35;63.83;100991.84;5010510;28;1913;-42
2021/12/21 03:26:34;;;;;;;;;;;;;;;17.37;63.77;101004.16;5005372;28;1079;-42
2021/12/21 03:29:07;;;;;;;;;;;;;;;17.32;63.99;100994.78;5004261;28;1917;-41
2021/12/21 03:31:34;;;;;;;;;;;;;;;17.32;63.97;101009.00;5006168;28;1911;-41
2021/12/21 03:34:01;;;;;;;;;;;;;;;17.25;64.16;101002.44;5004825;28;1914;-41
2021/12/21 03:36:31;;;;;;;;;;;;;;;17.30;63.81;101008.25;4998940;28;1898;-41
2021/12/21 03:39:06;;;;;;;;;;;;;;;17.34;63.99;101019.56;5003184;28;1890;-42
2021/12/21 03:41:40;;;;;;;;;;;;;;;17.32;64.00;101003.66;4995072;28;1143;-41
2021/12/21 03:44:14;;;;;;;;;;;;;;;17.29;64.07;101011.91;5004365;28;1496;-41
2021/12/21 03:46:46;;;;;;;;;;;;;;;17.47;63.54;101010.47;4997103;28;1699;-41
2021/12/21 03:49:49;;;;;;;;;;;;;;;17.41;63.83;101016.31;5001163;28;1810;-42
2021/12/21 03:52:07;;;;;;;;;;;;;;;17.35;63.80;101016.78;4995904;28;1977;-41
2021/12/21 03:54:36;;;;;;;;;;;;;;;17.32;63.89;101014.34;4998449;28;1977;-41
2021/12/21 03:57:11;;;;;;;;;;;;;;;17.38;63.69;101024.56;5009027;28;1055;-41
2021/12/21 03:59:38;;;;;;;;;;;;;;;17.35;63.75;101037.28;4996557;28;1790;-41
2021/12/21 04:02:05;;;;;;;;;;;;;;;17.36;63.88;101036.34;5004727;28;1900;-41
2021/12/21 04:04:33;;;;;;;;;;;;;;;17.37;63.95;101033.56;5003983;28;1887;-42
2021/12/21 04:07:10;;;;;;;;;;;;;;;17.36;63.92;101045.19;4995008;28;1982;-41
2021/12/21 04:09:37;;;;;;;;;;;;;;;17.46;63.53;101032.81;4994727;28;1985;-42
2021/12/21 04:12:06;;;;;;;;;;;;;;;17.53;63.46;101035.03;5013131;28;1297;-41
2021/12/21 04:14:34;;;;;;;;;;;;;;;17.43;63.53;101038.44;4996726;28;1906;-41
2021/12/21 04:17:01;;;;;;;;;;;;;;;17.49;63.60;101048.66;4995662;28;1795;-41
2021/12/21 04:19:28;;;;;;;;;;;;;;;17.49;63.60;101043.28;5009053;28;2311;-41
2021/12/21 04:21:56;;;;;;;;;;;;;;;17.42;63.60;101058.09;5011681;28;1590;-41
2021/12/21 04:24:24;;;;;;;;;;;;;;;17.40;63.73;101048.50;5009448;28;1992;-41
2021/12/21 04:26:54;;;;;;;;;;;;;;;17.38;64.11;101050.44;5013766;28;1121;-41
2021/12/21 04:29:38;;;;;;;;;;;;;;;17.38;64.12;101067.31;4998748;28;2002;-41
2021/12/21 04:32:06;;;;;;;;;;;;;;;17.37;63.82;101060.28;4997704;28;1852;-41
2021/12/21 04:34:38;;;;;;;;;;;;;;;17.41;63.72;101056.41;4999534;28;1974;-41
2021/12/21 04:37:19;;;;;;;;;;;;;;;17.40;63.81;101065.38;4997757;28;1611;-41
2021/12/21 04:39:53;;;;;;;;;;;;;;;17.37;63.89;101060.28;4999995;28;1692;-42
2021/12/21 04:42:23;;;;;;;;;;;;;;;17.53;63.43;101075.13;4993285;28;1084;-41
2021/12/21 04:44:49;;;;;;;;;;;;;;;17.55;63.37;101083.88;4995475;28;1828;-42
2021/12/21 04:47:23;;;;;;;;;;;;;;;17.59;63.24;101082.69;5003423;28;1932;-41
2021/12/21 04:49:52;;;;;;;;;;;;;;;17.58;63.26;101083.66;5011552;28;1793;-41
2021/12/21 04:52:19;;;;;;;;;;;;;;;17.47;63.70;101090.69;5003051;28;1588;-41
2021/12/21 04:54:47;;;;;;;;;;;;;;;17.53;63.56;101093.84;5004951;28;1955;-41
2021/12/21 04:57:14;;;;;;;;;;;;;;;17.55;63.29;101083.88;5012878;28;1072;-41
2021/12/21 04:59:42;;;;;;;;;;;;;;;17.61;63.50;101086.97;4996123;28;2244;-41
2021/12/21 05:02:13;;;;;;;;;;;;;;;17.41;63.05;101093.84;5004919;28;1771;-41
2021/12/21 05:04:55;;;;;;;;;;;;;;;17.49;63.48;101098.59;4996492;28;1839;-41
2021/12/21 05:07:23;;;;;;;;;;;;;;;17.60;63.38;101089.75;5006714;28;1858;-41
2021/12/21 05:09:56;;;;;;;;;;;;;;;17.46;63.54;101106.84;5005722;28;1797;-41
2021/12/21 05:12:36;;;;;;;;;;;;;;;17.44;63.56;101114.97;5013080;28;1066;-42
2021/12/21 05:15:04;;;;;;;;;;;;;;;17.47;63.64;101109.41;4992807;28;1902;-42
2021/12/21 05:17:31;;;;;;;;;;;;;;;17.39;63.75;101116.28;4993209;28;1985;-41
2021/12/21 05:20:01;;;;;;;;;;;;;;;17.43;63.62;101125.81;5009447;28;1979;-41
2021/12/21 05:22:29;;;;;;;;;;;;;;;17.40;63.65;101124.19;5004452;28;1437;-41
2021/12/21 05:24:58;;;;;;;;;;;;;;;17.50;63.46;101125.19;5008789;28;1773;-42
2021/12/21 05:27:26;;;;;;;;;;;;;;;17.45;63.77;101121.19;5012949;28;1061;-41
2021/12/21 05:29:53;;;;;;;;;;;;;;;17.47;63.66;101129.94;4994808;28;1831;-42
2021/12/21 05:32:20;;;;;;;;;;;;;;;17.17;64.25;101135.75;4995077;28;1727;-41
2021/12/21 05:34:50;;;;;;;;;;;;;;;16.99;64.91;101132.63;5001104;28;1983;-42
2021/12/21 05:37:18;;;;;;;;;;;;;;;16.85;64.90;101117.63;5001792;28;1802;-42
2021/12/21 05:39:55;;;;;;;;;;;;;;;17.16;64.46;101136.75;5003947;28;1807;-41
2021/12/21 05:42:21;;;;;;;;;;;;;;;17.55;63.58;101148.94;5009490;28;1076;-42
2021/12/21 05:44:49;;;;;;;;;;;;;;;17.56;63.65;101139.09;5001166;28;2142;-42
2021/12/21 05:47:16;;;;;;;;;;;;;;;17.64;63.74;101153.56;5000016;28;1654;-42
2021/12/21 05:49:42;;;;;;;;;;;;;;;17.79;63.24;101151.56;5001758;28;1717;-42
2021/12/21 05:52:09;;;;;;;;;;;;;;;18.08;61.84;101152.00;5003454;28;1742;-42
2021/12/21 05:54:36;;;;;;;;;;;;;;;17.96;62.08;101152.09;5009930;28;1977;-42
2021/12/21 05:57:03;;;;;;;;;;;;;;;18.17;62.54;101163.81;5000740;28;1876;-41
2021/12/21 05:59:29;;;;;;;;;;;;;;;18.16;62.92;101155.88;5005959;28;1752;-41
2021/12/21 06:01:56;;;;;;;;;;;;;;;18.19;62.94;101175.25;5006051;28;2721;-42
2021/12/21 06:04:24;;;;;;;;;;;;;;;18.12;63.04;101168.66;5006708;28;1568;-41
2021/12/21 06:06:50;;;;;;;;;;;;;;;18.28;62.25;101161.13;5011530;28;1574;-41
2021/12/21 06:09:17;;;;;;;;;;;;;;;18.36;61.91;101157.00;5007429;28;3331;-40
2021/12/21 06:11:50;;;;;;;;;;;;;;;18.26;62.73;101181.84;4999183;28;4073;-41
2021/12/21 06:14:38;;;;;;;;;;;;;;;18.43;61.78;101188.50;5007252;28;3987;-41
2021/12/21 06:22:57;;;;;;;;;;;;;;;18.32;62.55;101184.97;5014601;28;1688;-41
2021/12/21 06:25:37;;;;;;;;;;;;;;;18.31;62.31;101191.31;5009984;28;1746;-41
2021/12/21 06:28:08;;;;;;;;;;;;;;;18.30;62.83;101198.47;5005512;28;1217;-41
2021/12/21 06:30:35;;;;;;;;;;;;;;;18.23;62.13;101203.47;5014837;28;1467;-41
2021/12/21 06:33:02;;;;;;;;;;;;;;;18.37;62.76;101207.75;5011809;28;1766;-41
2021/12/21 06:35:28;;;;;;;;;;;;;;;18.31;62.69;101220.78;5004719;28;1974;-41
2021/12/21 06:37:55;;;;;;;;;;;;;;;18.42;61.81;101208.25;5004949;28;1418;-41
2021/12/21 06:40:22;;;;;;;;;;;;;;;18.43;61.71;101209.94;5001882;28;1639;-41
2021/12/21 06:42:50;;;;;;;;;;;;;;;18.50;62.01;101221.00;5003607;28;1018;-41
2021/12/21 06:45:29;;;;;;;;;;;;;;;18.43;62.69;101226.00;5001209;28;1939;-41
2021/12/21 06:53:24;;;;;;;;;;;;;;;19.00;61.30;101239.41;4999095;28;1406;-40
2021/12/21 06:55:50;;;;;;;;;;;;;;;19.31;62.15;101240.44;5005942;28;1915;-40
2021/12/21 06:58:17;;;;;;;;;;;;;;;19.40;61.21;101230.81;5006070;28;1099;-39
2021/12/21 07:00:46;;;;;;;;;;;;;;;19.59;60.37;101235.47;5006805;28;1828;-40
2021/12/21 07:03:12;;;;;;;;;;;;;;;19.76;59.79;101240.31;4999685;28;2044;-39
2021/12/21 07:05:40;;;;;;;;;;;;;;;19.75;60.77;101253.88;5013748;28;1656;-39
2021/12/21 07:08:08;;;;;;;;;;;;;;;19.71;59.77;101247.91;5011318;28;1620;-40
2021/12/21 07:10:37;;;;;;;;;;;;;;;19.32;61.76;101235.94;5006241;28;1763;-40
2021/12/21 07:18:34;;;;;;;;;;;;;;;18.64;63.19;101252.94;5009068;28;1222;-40
2021/12/21 07:21:01;;;;;;;;;;;;;;;18.72;62.88;101267.53;5009767;28;1493;-40
2021/12/21 07:23:28;;;;;;;;;;;;;;;18.90;63.53;101259.88;5011730;28;1392;-40
2021/12/21 07:25:54;;;;;;;;;;;;;;;18.92;62.30;101248.09;5012076;28;1611;-41
2021/12/21 07:28:22;;;;;;;;;;;;;;;18.62;62.48;101220.06;5010657;28;1705;-40
2021/12/21 07:30:56;;;;;;;;;;;;;;;18.94;62.46;101262.22;5012887;28;1794;-39
2021/12/21 07:33:26;;;;;;;;;;;;;;;18.76;62.16;101280.59;5002046;28;1799;-39
2021/12/21 07:35:53;;;;;;;;;;;;;;;18.55;62.91;101274.22;5008044;28;1906;-39
2021/12/21 07:38:22;;;;;;;;;;;;;;;18.43;63.60;101290.28;5012717;28;1584;-40
2021/12/21 07:40:48;;;;;;;;;;;;;;;18.42;63.42;101285.03;5006476;28;2040;-38
2021/12/21 07:43:15;;;;;;;;;;;;;;;18.35;62.56;101281.13;5011520;28;1718;-38
2021/12/21 07:45:41;;;;;;;;;;;;;;;18.17;61.20;101294.13;5005989;28;1599;-39
2021/12/21 07:48:14;;;;;;;;;;;;;;;18.24;61.37;101292.66;5011282;28;1702;-38
2021/12/21 07:50:45;;;;;;;;;;;;;;;18.25;61.69;101292.53;5007260;28;1167;-38
2021/12/21 07:53:13;;;;;;;;;;;;;;;18.22;59.23;101298.16;5012637;28;1658;-39
2021/12/21 07:55:40;;;;;;;;;;;;;;;18.23;57.90;101297.16;5012939;28;1912;-38
2021/12/21 07:58:06;;;;;;;;;;;;;;;18.55;59.28;101301.84;5011081;28;1681;-41
2021/12/21 08:00:33;;;;;;;;;;;;;;;18.60;59.84;101313.09;5009228;28;1682;-40
2021/12/21 08:03:00;;;;;;;;;;;;;;;18.10;60.37;101315.13;5007813;28;1708;-41
2021/12/21 08:05:31;;;;;;;;;;;;;;;18.48;56.71;101308.66;5009396;28;1590;-39
2021/12/21 08:08:08;;;;;;;;;;;;;;;18.60;57.65;101315.75;5008605;28;1590;-40
2021/12/21 08:10:43;;;;;;;;;;;;;;;18.59;57.26;101310.50;5012864;28;1578;-38
2021/12/21 08:13:10;;;;;;;;;;;;;;;19.03;58.09;101298.13;5006748;28;1491;-40
2021/12/21 08:15:36;;;;;;;;;;;;;;;18.99;58.52;101313.59;5009483;28;1971;-39
2021/12/21 08:18:03;;;;;;;;;;;;;;;19.16;57.60;101328.34;5011039;28;1760;-40
2021/12/21 08:20:31;;;;;;;;;;;;;;;18.89;58.54;101309.97;5008309;28;1494;-40
2021/12/21 08:22:58;;;;;;;;;;;;;;;18.87;59.15;101311.91;5003950;28;1868;-40
2021/12/21 08:25:25;;;;;;;;;;;;;;;18.86;59.47;101324.47;5005821;28;1499;-39
2021/12/21 08:27:52;;;;;;;;;;;;;;;19.18;59.20;101322.84;5010587;28;1833;-40
2021/12/21 08:30:18;;;;;;;;;;;;;;;18.88;60.75;101332.38;5013191;28;1927;-40
2021/12/21 08:32:45;;;;;;;;;;;;;;;18.79;60.67;101327.72;5010652;28;1716;-39
2021/12/21 08:35:12;;;;;;;;;;;;;;;18.68;61.78;101321.38;5001435;28;1986;-40
2021/12/21 08:37:40;;;;;;;;;;;;;;;18.69;61.79;101344.50;5005606;28;1703;-38
2021/12/21 08:40:10;;;;;;;;;;;;;;;18.85;61.25;101332.63;5004055;28;1684;-40
2021/12/21 08:42:38;;;;;;;;;;;;;;;18.76;61.67;101362.75;5005981;28;1007;-39
2021/12/21 08:45:06;;;;;;;;;;;;;;;18.73;61.00;101361.19;5008937;28;1935;-39
2021/12/21 08:47:32;;;;;;;;;;;;;;;18.76;61.26;101369.00;5001415;28;1674;-38
2021/12/21 08:49:59;;;;;;;;;;;;;;;18.95;61.45;101376.47;5005217;28;1658;-39
2021/12/21 08:52:25;;;;;;;;;;;;;;;18.80;62.54;101367.81;5005566;28;1797;-39
2021/12/21 08:54:53;;;;;;;;;;;;;;;18.81;62.20;101369.50;5004527;28;1833;-39
2021/12/21 08:57:19;;;;;;;;;;;;;;;18.84;61.72;101371.97;5003468;28;1902;-39
2021/12/21 08:59:46;;;;;;;;;;;;;;;18.92;60.98;101382.09;4997113;28;2005;-39
2021/12/21 09:02:12;;;;;;;;;;;;;;;19.02;61.82;101376.84;5002858;28;1346;-39
2021/12/21 09:04:40;;;;;;;;;;;;;;;18.95;61.69;101376.47;5001646;28;1596;-39
2021/12/21 09:07:07;;;;;;;;;;;;;;;18.99;61.93;101377.09;5007114;28;1887;-39
2021/12/21 09:09:33;;;;;;;;;;;;;;;19.08;61.56;101368.34;5004274;28;2008;-39
2021/12/21 09:12:01;;;;;;;;;;;;;;;19.11;61.39;101367.22;5003631;28;1695;-39
2021/12/21 09:14:31;;;;;;;;;;;;;;;19.19;61.11;101368.31;4996792;28;1340;-39
2021/12/21 09:16:58;;;;;;;;;;;;;;;19.36;60.64;101348.22;4999516;28;1910;-40
2021/12/21 09:19:24;;;;;;;;;;;;;;;19.35;60.80;101362.56;4999691;28;1718;-38
2021/12/21 09:21:51;;;;;;;;;;;;;;;19.38;60.11;101378.44;5006151;28;1886;-38
2021/12/21 09:24:18;;;;;;;;;;;;;;;19.58;60.11;101378.66;5003348;28;1947;-39
2021/12/21 09:26:44;;;;;;;;;;;;;;;19.27;60.54;101371.22;5003826;28;1785;-39
2021/12/21 09:29:12;;;;;;;;;;;;;;;19.50;59.74;101381.09;5002580;28;1733;-38
2021/12/21 09:31:39;;;;;;;;;;;;;;;19.36;60.11;101379.50;5007697;28;1619;-39
2021/12/21 09:34:05;;;;;;;;;;;;;;;19.26;61.41;101374.06;5006717;28;1119;-38
2021/12/21 09:36:32;;;;;;;;;;;;;;;19.47;60.25;101371.47;5005902;28;1915;-39
2021/12/21 09:38:58;;;;;;;;;;;;;;;19.36;60.07;101364.28;5010864;28;1876;-39
2021/12/21 09:41:25;;;;;;;;;;;;;;;19.33;60.22;101366.38;5007684;28;1818;-39
2021/12/21 09:43:51;;;;;;;;;;;;;;;19.24;60.37;101374.19;4998992;28;1455;-39
2021/12/21 09:46:19;;;;;;;;;;;;;;;19.15;61.73;101372.22;5006494;28;1035;-39
2021/12/21 09:48:46;;;;;;;;;;;;;;;19.05;61.69;101360.53;5010059;28;1776;-39
2021/12/21 09:51:12;;;;;;;;;;;;;;;19.15;61.68;101387.47;5008792;28;1853;-38
2021/12/21 09:53:39;;;;;;;;;;;;;;;19.00;61.27;101379.66;5003000;28;1483;-39
2021/12/21 09:56:06;;;;;;;;;;;;;;;19.08;61.13;101377.22;5009047;28;1898;-39
2021/12/21 09:58:32;;;;;;;;;;;;;;;19.10;61.44;101379.78;5001412;28;1164;-40
2021/12/21 10:00:59;;;;;;;;;;;;;;;19.03;60.82;101392.81;5008551;28;1850;-39
2021/12/21 10:03:27;;;;;;;;;;;;;;;19.01;60.87;101378.66;5000611;28;1950;-39
2021/12/21 10:06:01;;;;;;;;;;;;;;;18.95;61.04;101383.66;5007673;28;1846;-39
2021/12/21 10:08:30;;;;;;;;;;;;;;;19.00;61.58;101401.09;5005756;28;1470;-39
2021/12/21 10:10:57;;;;;;;;;;;;;;;19.16;60.88;101381.97;5005213;28;1948;-38
2021/12/21 10:13:24;;;;;;;;;;;;;;;19.15;61.60;101385.63;5005924;28;1064;-39
2021/12/21 10:15:51;;;;;;;;;;;;;;;19.23;61.31;101385.88;5002453;28;1906;-39
2021/12/21 10:18:22;;;;;;;;;;;;;;;19.20;61.22;101385.25;5004348;28;1746;-39
2021/12/21 10:20:50;;;;;;;;;;;;;;;19.26;61.12;101390.16;5008292;28;1762;-39
2021/12/21 10:23:18;;;;;;;;;;;;;;;19.28;61.21;101382.84;5007798;28;1798;-40
2021/12/21 10:25:46;;;;;;;;;;;;;;;19.25;60.20;101385.75;5006757;28;1799;-40
2021/12/21 10:28:13;;;;;;;;;;;;;;;19.22;60.73;101384.16;5006239;28;1089;-38
2021/12/21 10:30:50;;;;;;;;;;;;;;;19.10;61.70;101389.63;5006724;28;1688;-39
2021/12/21 10:33:16;;;;;;;;;;;;;;;19.06;61.51;101387.22;5009936;28;2067;-39
2021/12/21 10:35:43;;;;;;;;;;;;;;;19.21;61.58;101393.19;5004503;28;1979;-39
2021/12/21 10:38:10;;;;;;;;;;;;;;;19.16;60.88;101406.09;5006807;28;1468;-38
2021/12/21 10:40:39;;;;;;;;;;;;;;;19.14;61.17;101393.78;5004168;28;1793;-38
2021/12/21 10:43:07;;;;;;;;;;;;;;;19.05;61.45;101398.06;5003286;28;1067;-40
2021/12/21 10:45:34;;;;;;;;;;;;;;;19.08;60.48;101401.34;5002268;28;1626;-39
2021/12/21 10:48:02;;;;;;;;;;;;;;;19.20;61.40;101399.53;5007743;28;1682;-39
2021/12/21 10:50:32;;;;;;;;;;;;;;;19.22;60.73;101399.41;5005743;28;1709;-39
2021/12/21 10:52:59;;;;;;;;;;;;;;;19.21;60.64;101403.06;5007792;28;1422;-39
2021/12/21 10:55:27;;;;;;;;;;;;;;;19.25;61.20;101401.84;5003268;28;1662;-38
2021/12/21 10:58:05;;;;;;;;;;;;;;;19.23;61.06;101401.09;5005016;28;1965;-39
2021/12/21 11:00:31;;;;;;;;;;;;;;;19.10;60.97;101406.59;5001760;28;1710;-39
2021/12/21 11:02:58;;;;;;;;;;;;;;;19.07;61.63;101407.66;5009362;28;1817;-40
2021/12/21 11:05:24;;;;;;;;;;;;;;;19.27;60.35;101390.00;5007015;28;1721;-39
2021/12/21 11:07:54;;;;;;;;;;;;;;;19.32;60.94;101400.38;5005470;28;1069;-39
2021/12/21 11:10:26;;;;;;;;;;;;;;;19.10;60.82;101406.59;5001878;28;1757;-40
2021/12/21 11:12:55;;;;;;;;;;;;;;;19.08;61.58;101409.38;5010062;28;1053;-38
2021/12/21 11:15:22;;;;;;;;;;;;;;;19.01;61.27;101407.31;5009577;28;1876;-40
2021/12/21 11:17:49;;;;;;;;;;;;;;;19.18;61.46;101419.38;5002518;28;1903;-38
2021/12/21 11:20:16;;;;;;;;;;;;;;;19.11;61.32;101413.66;5005905;28;1614;-39
2021/12/21 11:22:45;;;;;;;;;;;;;;;19.15;61.07;101399.03;5005215;28;1766;-40
2021/12/21 11:25:12;;;;;;;;;;;;;;;19.26;59.91;101399.03;5005385;28;1747;-40
2021/12/21 11:27:39;;;;;;;;;;;;;;;19.29;60.70;101405.97;5006677;28;1866;-39
2021/12/21 11:30:10;;;;;;;;;;;;;;;19.37;59.61;101419.63;5007285;28;1715;-39
2021/12/21 11:32:39;;;;;;;;;;;;;;;19.42;60.65;101414.75;5007478;28;1602;-40
2021/12/21 11:37:20;;;;;;;;;;;;;;;19.40;59.53;101406.00;4996776;28;1707;-39
2021/12/21 11:37:58;;;;;;;;;;;;;;;19.38;59.47;101407.94;5006857;28;1914;-41
2021/12/21 11:40:26;;;;;;;;;;;;;;;19.24;60.79;101437.69;5005525;28;1880;-39
2021/12/21 11:42:57;;;;;;;;;;;;;;;19.04;60.83;101418.66;5005636;28;1031;-40
2021/12/21 11:45:27;;;;;;;;;;;;;;;19.15;60.46;101430.34;5002652;28;1791;-39
2021/12/21 11:47:56;;;;;;;;;;;;;;;19.19;60.79;101437.19;5004429;28;1492;-39
2021/12/21 11:50:22;;;;;;;;;;;;;;;19.11;61.17;101424.38;5003720;28;1673;-40
2021/12/21 11:52:50;;;;;;;;;;;;;;;19.15;60.76;101435.72;5005008;28;1782;-40
2021/12/21 11:55:18;;;;;;;;;;;;;;;19.15;60.71;101430.34;4998663;28;1521;-39
2021/12/21 11:57:45;;;;;;;;;;;;;;;19.19;60.85;101431.81;5006200;28;1973;-39
2021/12/21 12:00:14;;;;;;;;;;;;;;;19.16;60.77;101434.72;5009205;28;1706;-39
2021/12/21 12:02:42;;;;;;;;;;;;;;;19.25;59.49;101440.22;5007482;28;1934;-40
2021/12/21 12:05:19;;;;;;;;;;;;;;;19.32;59.57;101450.47;5005030;28;1732;-40
2021/12/21 12:07:45;;;;;;;;;;;;;;;19.25;59.66;101447.41;5005397;28;1737;-40
2021/12/21 12:10:13;;;;;;;;;;;;;;;19.27;60.49;101437.44;5005921;28;2249;-39
2021/12/21 12:12:39;;;;;;;;;;;;;;;19.37;60.17;101442.91;5006172;28;2018;-39
2021/12/21 12:15:08;;;;;;;;;;;;;;;19.38;60.02;101436.59;4999621;28;1882;-39
2021/12/21 12:17:46;;;;;;;;;;;;;;;19.39;59.12;101438.28;5004057;28;1898;-39
2021/12/21 12:20:14;;;;;;;;;;;;;;;19.38;59.89;101437.44;5006616;28;1622;-39
2021/12/21 12:22:41;;;;;;;;;;;;;;;19.24;60.68;101441.22;5003323;28;1601;-39
2021/12/21 12:25:09;;;;;;;;;;;;;;;19.19;60.12;101439.84;5002592;28;1551;-39
2021/12/21 12:27:42;;;;;;;;;;;;;;;19.32;60.44;101450.47;5005747;28;1128;-39
2021/12/21 12:30:10;;;;;;;;;;;;;;;19.35;60.33;101447.56;5008225;28;1893;-39
2021/12/21 12:32:38;;;;;;;;;;;;;;;19.36;59.98;101444.75;5006676;28;1652;-39
2021/12/21 12:35:08;;;;;;;;;;;;;;;19.25;60.32;101442.91;5003396;28;1474;-39
2021/12/21 12:37:47;;;;;;;;;;;;;;;19.24;60.52;101448.41;5001597;28;1910;-39
2021/12/21 12:40:15;;;;;;;;;;;;;;;19.25;59.42;101458.16;5006075;28;1696;-39
2021/12/21 12:42:42;;;;;;;;;;;;;;;19.19;60.65;101453.25;5003422;28;999;-40
2021/12/21 12:45:10;;;;;;;;;;;;;;;19.24;60.59;101457.31;4999757;28;1687;-39
2021/12/21 12:47:37;;;;;;;;;;;;;;;19.22;60.30;101453.03;5001979;28;1837;-39
2021/12/21 12:50:14;;;;;;;;;;;;;;;19.18;60.58;101452.41;5006370;28;1680;-39
2021/12/21 12:52:48;;;;;;;;;;;;;;;19.23;60.63;101450.22;5001616;28;1775;-40
2021/12/21 12:55:15;;;;;;;;;;;;;;;19.08;60.43;101449.59;5005805;28;1838;-39
2021/12/21 12:57:50;;;;;;;;;;;;;;;19.16;60.54;101458.84;5002922;28;1965;-39
2021/12/21 13:00:18;;;;;;;;;;;;;;;19.27;60.28;101448.16;4999883;28;1660;-39
2021/12/21 13:02:54;;;;;;;;;;;;;;;19.30;59.37;101455.97;5006293;28;1779;-39
2021/12/21 13:05:25;;;;;;;;;;;;;;;19.39;59.23;101455.22;5002865;28;1571;-39
2021/12/21 13:07:52;;;;;;;;;;;;;;;19.10;60.86;101457.53;5003176;28;1107;-39
2021/12/21 13:10:22;;;;;;;;;;;;;;;19.38;59.91;101463.41;4998356;28;1868;-39
2021/12/21 13:12:55;;;;;;;;;;;;;;;19.35;60.05;101469.00;5001586;28;1060;-40
2021/12/21 13:15:31;;;;;;;;;;;;;;;19.25;59.96;101474.22;5004096;28;1840;-39
2021/12/21 13:17:59;;;;;;;;;;;;;;;19.17;60.56;101482.88;5000015;28;1906;-40
2021/12/21 13:20:26;;;;;;;;;;;;;;;19.17;59.66;101471.31;5004019;28;1546;-39
2021/12/21 13:22:54;;;;;;;;;;;;;;;18.99;60.77;101490.50;5001251;28;1737;-40
2021/12/21 13:25:20;;;;;;;;;;;;;;;19.05;59.76;101495.41;5004656;28;1764;-38
2021/12/21 13:27:47;;;;;;;;;;;;;;;19.27;60.15;101493.75;5002608;28;1163;-39
2021/12/21 13:30:18;;;;;;;;;;;;;;;19.26;59.14;101497.41;4999287;28;1883;-39
2021/12/21 13:32:44;;;;;;;;;;;;;;;19.35;59.70;101506.56;5003022;28;1767;-39